sensor_id;sensor_type;location;lat;lon;timestamp;P1;durP1;ratioP1;P2;durP2;ratioP2
66663;SDS011;59683;51.428;-1.994;2023-08-01T04:02:04;12.70;;;3.67;;
66663;SDS011;59683;51.428;-1.994;2023-08-01T04:04:29;11.03;;;2.80;;
66663;SDS011;59683;51.428;-1.994;2023-08-01T04:06:56;13.07;;;2.63;;
66663;SDS011;59683;51.428;-1.994;2023-08-01T04:09:21;9.07;;;3.20;;
66663;SDS011;59683;51.428;-1.994;2023-08-01T04:11:47;12.90;;;3.93;;
66663;SDS011;59683;51.428;-1.994;2023-08-01T04:14:12;10.33;;;2.60;;
66663;SDS011;59683;51.428;-1.994;2023-08-01T04:16:38;10.53;;;3.00;;
66663;SDS011;59683;51.428;-1.994;2023-08-01T04:19:03;12.07;;;3.33;;
66663;SDS011;59683;51.428;-1.994;2023-08-01T04:21:28;10.03;;;2.87;;
66663;SDS011;59683;51.428;-1.994;2023-08-01T04:23:54;12.20;;;2.70;;
66663;SDS011;59683;51.428;-1.994;2023-08-01T04:26:19;15.73;;;3.53;;
66663;SDS011;59683;51.428;-1.994;2023-08-01T04:28:45;12.83;;;3.27;;
66663;SDS011;59683;51.428;-1.994;2023-08-01T04:31:12;14.80;;;2.60;;
66663;SDS011;59683;51.428;-1.994;2023-08-01T04:33:37;10.37;;;2.00;;
66663;SDS011;59683;51.428;-1.994;2023-08-01T04:36:02;11.33;;;2.73;;
66663;SDS011;59683;51.428;-1.994;2023-08-01T04:38:28;16.13;;;2.67;;
66663;SDS011;59683;51.428;-1.994;2023-08-01T04:40:53;10.60;;;2.00;;
66663;SDS011;59683;51.428;-1.994;2023-08-01T04:43:19;8.03;;;2.20;;
66663;SDS011;59683;51.428;-1.994;2023-08-01T04:45:45;8.30;;;2.27;;
66663;SDS011;59683;51.428;-1.994;2023-08-01T04:48:10;11.23;;;2.20;;
66663;SDS011;59683;51.428;-1.994;2023-08-01T04:50:35;8.10;;;1.73;;
66663;SDS011;59683;51.428;-1.994;2023-08-01T04:53:01;13.60;;;2.70;;
66663;SDS011;59683;51.428;-1.994;2023-08-01T04:55:26;8.27;;;2.07;;
66663;SDS011;59683;51.428;-1.994;2023-08-01T04:57:52;8.57;;;2.73;;
66663;SDS011;59683;51.428;-1.994;2023-08-01T05:00:17;11.40;;;2.40;;
66663;SDS011;59683;51.428;-1.994;2023-08-01T05:02:42;6.90;;;1.27;;
66663;SDS011;59683;51.428;-1.994;2023-08-01T05:05:08;7.13;;;2.17;;
66663;SDS011;59683;51.428;-1.994;2023-08-01T05:07:33;11.40;;;2.27;;
66663;SDS011;59683;51.428;-1.994;2023-08-01T05:09:59;8.57;;;2.13;;
66663;SDS011;59683;51.428;-1.994;2023-08-01T05:12:24;8.93;;;2.17;;
66663;SDS011;59683;51.428;-1.994;2023-08-01T05:14:49;13.33;;;2.53;;
66663;SDS011;59683;51.428;-1.994;2023-08-01T05:17:15;12.93;;;2.03;;
66663;SDS011;59683;51.428;-1.994;2023-08-01T05:19:40;11.03;;;3.20;;
66663;SDS011;59683;51.428;-1.994;2023-08-01T05:22:06;12.80;;;2.00;;
66663;SDS011;59683;51.428;-1.994;2023-08-01T05:24:31;16.13;;;2.60;;
66663;SDS011;59683;51.428;-1.994;2023-08-01T05:26:56;12.97;;;1.87;;
66663;SDS011;59683;51.428;-1.994;2023-08-01T05:29:22;9.40;;;2.10;;
66663;SDS011;59683;51.428;-1.994;2023-08-01T05:31:47;12.93;;;1.93;;
66663;SDS011;59683;51.428;-1.994;2023-08-01T05:34:13;10.17;;;1.90;;
66663;SDS011;59683;51.428;-1.994;2023-08-01T05:36:38;12.73;;;2.37;;
66663;SDS011;59683;51.428;-1.994;2023-08-01T05:39:03;8.87;;;1.93;;
66663;SDS011;59683;51.428;-1.994;2023-08-01T05:41:29;9.77;;;2.13;;
66663;SDS011;59683;51.428;-1.994;2023-08-01T05:43:54;8.77;;;2.23;;
66663;SDS011;59683;51.428;-1.994;2023-08-01T05:46:20;5.10;;;1.53;;
66663;SDS011;59683;51.428;-1.994;2023-08-01T05:48:45;10.10;;;1.67;;
66663;SDS011;59683;51.428;-1.994;2023-08-01T05:51:11;7.17;;;1.50;;
66663;SDS011;59683;51.428;-1.994;2023-08-01T05:53:36;7.40;;;1.50;;
66663;SDS011;59683;51.428;-1.994;2023-08-01T05:56:02;15.03;;;2.07;;
66663;SDS011;59683;51.428;-1.994;2023-08-01T05:58:27;6.77;;;1.60;;
66663;SDS011;59683;51.428;-1.994;2023-08-01T06:00:53;5.30;;;1.47;;
66663;SDS011;59683;51.428;-1.994;2023-08-01T06:03:18;10.67;;;1.67;;
66663;SDS011;59683;51.428;-1.994;2023-08-01T06:05:43;7.90;;;1.80;;
66663;SDS011;59683;51.428;-1.994;2023-08-01T06:08:09;9.17;;;2.00;;
66663;SDS011;59683;51.428;-1.994;2023-08-01T06:10:35;6.17;;;1.23;;
66663;SDS011;59683;51.428;-1.994;2023-08-01T06:13:01;9.77;;;1.20;;
66663;SDS011;59683;51.428;-1.994;2023-08-01T06:15:26;8.87;;;2.17;;
66663;SDS011;59683;51.428;-1.994;2023-08-01T06:17:52;5.23;;;1.50;;
66663;SDS011;59683;51.428;-1.994;2023-08-01T06:20:17;4.80;;;1.30;;
66663;SDS011;59683;51.428;-1.994;2023-08-01T06:22:43;6.47;;;1.33;;
66663;SDS011;59683;51.428;-1.994;2023-08-01T06:25:08;2.63;;;0.70;;
66663;SDS011;59683;51.428;-1.994;2023-08-01T06:27:34;6.73;;;1.40;;
66663;SDS011;59683;51.428;-1.994;2023-08-01T06:29:59;10.13;;;1.10;;
66663;SDS011;59683;51.428;-1.994;2023-08-01T06:32:25;7.97;;;1.13;;
66663;SDS011;59683;51.428;-1.994;2023-08-01T06:34:50;8.70;;;1.13;;
66663;SDS011;59683;51.428;-1.994;2023-08-01T06:37:16;4.90;;;1.07;;
66663;SDS011;59683;51.428;-1.994;2023-08-01T06:39:41;5.00;;;1.27;;
66663;SDS011;59683;51.428;-1.994;2023-08-01T06:42:06;7.33;;;1.40;;
66663;SDS011;59683;51.428;-1.994;2023-08-01T06:44:32;3.33;;;0.87;;
66663;SDS011;59683;51.428;-1.994;2023-08-01T06:46:57;3.83;;;1.10;;
66663;SDS011;59683;51.428;-1.994;2023-08-01T06:49:23;5.63;;;0.97;;
66663;SDS011;59683;51.428;-1.994;2023-08-01T06:51:48;5.53;;;0.80;;
66663;SDS011;59683;51.428;-1.994;2023-08-01T06:54:13;2.73;;;0.73;;
66663;SDS011;59683;51.428;-1.994;2023-08-01T06:56:39;3.37;;;1.07;;
66663;SDS011;59683;51.428;-1.994;2023-08-01T06:59:04;3.53;;;0.80;;
66663;SDS011;59683;51.428;-1.994;2023-08-01T07:01:30;4.93;;;0.67;;
66663;SDS011;59683;51.428;-1.994;2023-08-01T07:03:55;5.60;;;0.80;;
66663;SDS011;59683;51.428;-1.994;2023-08-01T07:06:22;7.43;;;1.57;;
66663;SDS011;59683;51.428;-1.994;2023-08-01T07:08:48;5.55;;;1.10;;
66663;SDS011;59683;51.428;-1.994;2023-08-01T07:11:14;6.25;;;0.98;;
66663;SDS011;59683;51.428;-1.994;2023-08-01T07:13:39;4.32;;;1.00;;
66663;SDS011;59683;51.428;-1.994;2023-08-01T07:16:04;6.63;;;1.10;;
66663;SDS011;59683;51.428;-1.994;2023-08-01T07:18:30;4.43;;;0.77;;
66663;SDS011;59683;51.428;-1.994;2023-08-01T07:21:02;5.25;;;0.70;;
66663;SDS011;59683;51.428;-1.994;2023-08-01T07:23:28;5.03;;;1.10;;
66663;SDS011;59683;51.428;-1.994;2023-08-01T07:25:54;3.08;;;0.93;;
66663;SDS011;59683;51.428;-1.994;2023-08-01T07:28:19;5.07;;;1.15;;
66663;SDS011;59683;51.428;-1.994;2023-08-01T07:30:45;4.65;;;0.95;;
66663;SDS011;59683;51.428;-1.994;2023-08-01T07:33:10;5.20;;;0.90;;
66663;SDS011;59683;51.428;-1.994;2023-08-01T07:35:36;5.47;;;0.88;;
66663;SDS011;59683;51.428;-1.994;2023-08-01T07:38:01;19.25;;;1.25;;
66663;SDS011;59683;51.428;-1.994;2023-08-01T07:40:26;5.55;;;1.35;;
66663;SDS011;59683;51.428;-1.994;2023-08-01T07:42:52;4.05;;;0.88;;
66663;SDS011;59683;51.428;-1.994;2023-08-01T07:45:17;5.03;;;0.70;;
66663;SDS011;59683;51.428;-1.994;2023-08-01T07:47:44;5.28;;;0.80;;
66663;SDS011;59683;51.428;-1.994;2023-08-01T07:50:09;3.13;;;0.93;;
66663;SDS011;59683;51.428;-1.994;2023-08-01T07:52:35;5.13;;;1.05;;
66663;SDS011;59683;51.428;-1.994;2023-08-01T07:55:01;4.82;;;1.10;;
66663;SDS011;59683;51.428;-1.994;2023-08-01T07:57:26;5.55;;;1.20;;
66663;SDS011;59683;51.428;-1.994;2023-08-01T07:59:51;5.78;;;1.17;;
66663;SDS011;59683;51.428;-1.994;2023-08-01T08:02:17;3.70;;;0.80;;
66663;SDS011;59683;51.428;-1.994;2023-08-01T08:04:42;5.93;;;0.80;;
66663;SDS011;59683;51.428;-1.994;2023-08-01T08:07:08;3.75;;;0.80;;
66663;SDS011;59683;51.428;-1.994;2023-08-01T08:09:33;5.30;;;0.90;;
66663;SDS011;59683;51.428;-1.994;2023-08-01T08:11:58;3.45;;;1.00;;
66663;SDS011;59683;51.428;-1.994;2023-08-01T08:14:24;5.65;;;1.13;;
66663;SDS011;59683;51.428;-1.994;2023-08-01T08:16:50;4.85;;;1.15;;
66663;SDS011;59683;51.428;-1.994;2023-08-01T08:19:15;3.92;;;1.00;;
66663;SDS011;59683;51.428;-1.994;2023-08-01T08:21:41;4.72;;;1.50;;
66663;SDS011;59683;51.428;-1.994;2023-08-01T08:24:06;4.97;;;1.00;;
66663;SDS011;59683;51.428;-1.994;2023-08-01T08:26:32;4.68;;;0.70;;
66663;SDS011;59683;51.428;-1.994;2023-08-01T08:29:02;4.65;;;1.13;;
66663;SDS011;59683;51.428;-1.994;2023-08-01T08:31:27;6.97;;;1.27;;
66663;SDS011;59683;51.428;-1.994;2023-08-01T08:33:52;4.47;;;1.08;;
66663;SDS011;59683;51.428;-1.994;2023-08-01T08:36:18;4.53;;;0.70;;
66663;SDS011;59683;51.428;-1.994;2023-08-01T08:38:43;3.63;;;0.80;;
66663;SDS011;59683;51.428;-1.994;2023-08-01T08:41:16;4.50;;;0.90;;
66663;SDS011;59683;51.428;-1.994;2023-08-01T08:43:45;4.38;;;1.02;;
66663;SDS011;59683;51.428;-1.994;2023-08-01T08:46:14;3.95;;;1.08;;
66663;SDS011;59683;51.428;-1.994;2023-08-01T08:48:41;4.25;;;0.70;;
66663;SDS011;59683;51.428;-1.994;2023-08-01T08:51:07;5.75;;;1.02;;
66663;SDS011;59683;51.428;-1.994;2023-08-01T08:53:34;4.90;;;1.08;;
66663;SDS011;59683;51.428;-1.994;2023-08-01T08:56:01;4.25;;;1.38;;
66663;SDS011;59683;51.428;-1.994;2023-08-01T08:58:29;4.53;;;0.75;;
66663;SDS011;59683;51.428;-1.994;2023-08-01T09:00:59;5.20;;;1.35;;
66663;SDS011;59683;51.428;-1.994;2023-08-01T09:03:25;5.32;;;1.15;;
66663;SDS011;59683;51.428;-1.994;2023-08-01T09:05:52;3.53;;;0.68;;
66663;SDS011;59683;51.428;-1.994;2023-08-01T09:08:24;4.22;;;1.00;;
66663;SDS011;59683;51.428;-1.994;2023-08-01T09:10:53;3.67;;;0.80;;
66663;SDS011;59683;51.428;-1.994;2023-08-01T09:13:18;4.00;;;0.82;;
66663;SDS011;59683;51.428;-1.994;2023-08-01T09:15:44;4.35;;;0.93;;
66663;SDS011;59683;51.428;-1.994;2023-08-01T09:18:11;4.63;;;0.75;;
66663;SDS011;59683;51.428;-1.994;2023-08-01T09:20:43;3.97;;;0.77;;
66663;SDS011;59683;51.428;-1.994;2023-08-01T09:23:10;5.38;;;0.88;;
66663;SDS011;59683;51.428;-1.994;2023-08-01T09:25:39;4.80;;;1.10;;
66663;SDS011;59683;51.428;-1.994;2023-08-01T09:28:23;3.30;;;0.95;;
66663;SDS011;59683;51.428;-1.994;2023-08-01T09:30:50;4.88;;;0.90;;
66663;SDS011;59683;51.428;-1.994;2023-08-01T09:33:21;6.25;;;1.30;;
66663;SDS011;59683;51.428;-1.994;2023-08-01T09:35:49;8.25;;;1.60;;
66663;SDS011;59683;51.428;-1.994;2023-08-01T09:38:15;4.53;;;1.02;;
66663;SDS011;59683;51.428;-1.994;2023-08-01T09:40:41;3.65;;;0.80;;
66663;SDS011;59683;51.428;-1.994;2023-08-01T09:43:09;6.82;;;1.40;;
66663;SDS011;59683;51.428;-1.994;2023-08-01T09:45:35;4.18;;;1.50;;
66663;SDS011;59683;51.428;-1.994;2023-08-01T09:48:01;5.65;;;1.48;;
66663;SDS011;59683;51.428;-1.994;2023-08-01T09:50:26;5.43;;;1.10;;
66663;SDS011;59683;51.428;-1.994;2023-08-01T09:52:52;5.68;;;1.02;;
66663;SDS011;59683;51.428;-1.994;2023-08-01T09:55:33;7.03;;;1.08;;
66663;SDS011;59683;51.428;-1.994;2023-08-01T09:57:59;8.13;;;1.30;;
66663;SDS011;59683;51.428;-1.994;2023-08-01T10:00:26;2.00;;;0.63;;
66663;SDS011;59683;51.428;-1.994;2023-08-01T10:02:52;4.78;;;1.02;;
66663;SDS011;59683;51.428;-1.994;2023-08-01T10:05:20;4.47;;;0.90;;
66663;SDS011;59683;51.428;-1.994;2023-08-01T10:07:47;2.42;;;0.90;;
66663;SDS011;59683;51.428;-1.994;2023-08-01T10:10:16;5.32;;;0.60;;
66663;SDS011;59683;51.428;-1.994;2023-08-01T10:12:45;3.53;;;0.70;;
66663;SDS011;59683;51.428;-1.994;2023-08-01T10:49:12;3.83;;;0.70;;
66663;SDS011;59683;51.428;-1.994;2023-08-01T10:51:37;3.78;;;0.70;;
66663;SDS011;59683;51.428;-1.994;2023-08-01T10:54:02;3.65;;;0.88;;
66663;SDS011;59683;51.428;-1.994;2023-08-01T10:56:28;2.72;;;0.73;;
66663;SDS011;59683;51.428;-1.994;2023-08-01T10:58:56;2.45;;;0.50;;
66663;SDS011;59683;51.428;-1.994;2023-08-01T11:01:22;4.97;;;1.00;;
66663;SDS011;59683;51.428;-1.994;2023-08-01T11:04:54;2.83;;;0.77;;
66663;SDS011;59683;51.428;-1.994;2023-08-01T11:07:20;2.85;;;0.60;;
66663;SDS011;59683;51.428;-1.994;2023-08-01T11:09:45;3.22;;;1.23;;
66663;SDS011;59683;51.428;-1.994;2023-08-01T11:12:11;3.15;;;0.57;;
66663;SDS011;59683;51.428;-1.994;2023-08-01T11:14:36;5.43;;;0.80;;
66663;SDS011;59683;51.428;-1.994;2023-08-01T11:17:02;6.20;;;0.80;;
66663;SDS011;59683;51.428;-1.994;2023-08-01T11:19:29;3.35;;;0.70;;
66663;SDS011;59683;51.428;-1.994;2023-08-01T11:21:55;8.48;;;1.13;;
66663;SDS011;59683;51.428;-1.994;2023-08-01T11:24:22;2.85;;;0.70;;
66663;SDS011;59683;51.428;-1.994;2023-08-01T11:26:49;3.15;;;0.90;;
66663;SDS011;59683;51.428;-1.994;2023-08-01T11:29:16;5.40;;;0.95;;
66663;SDS011;59683;51.428;-1.994;2023-08-01T11:31:59;3.13;;;0.80;;
66663;SDS011;59683;51.428;-1.994;2023-08-01T11:34:25;3.13;;;0.88;;
66663;SDS011;59683;51.428;-1.994;2023-08-01T11:36:51;4.13;;;0.50;;
66663;SDS011;59683;51.428;-1.994;2023-08-01T11:39:17;2.75;;;0.60;;
66663;SDS011;59683;51.428;-1.994;2023-08-01T11:41:43;3.90;;;0.60;;
66663;SDS011;59683;51.428;-1.994;2023-08-01T11:44:09;2.72;;;0.50;;
66663;SDS011;59683;51.428;-1.994;2023-08-01T11:46:36;3.95;;;1.00;;
66663;SDS011;59683;51.428;-1.994;2023-08-01T11:49:03;2.50;;;0.80;;
66663;SDS011;59683;51.428;-1.994;2023-08-01T11:51:38;4.32;;;0.60;;
66663;SDS011;59683;51.428;-1.994;2023-08-01T11:54:15;5.82;;;1.00;;
66663;SDS011;59683;51.428;-1.994;2023-08-01T11:56:42;3.10;;;0.70;;
66663;SDS011;59683;51.428;-1.994;2023-08-01T12:02:30;2.28;;;0.65;;
66663;SDS011;59683;51.428;-1.994;2023-08-01T12:04:55;2.80;;;0.32;;
66663;SDS011;59683;51.428;-1.994;2023-08-01T12:20:02;3.78;;;0.70;;
66663;SDS011;59683;51.428;-1.994;2023-08-01T12:22:46;3.95;;;0.50;;
66663;SDS011;59683;51.428;-1.994;2023-08-01T12:25:12;2.70;;;0.60;;
66663;SDS011;59683;51.428;-1.994;2023-08-01T12:31:08;2.30;;;0.40;;
66663;SDS011;59683;51.428;-1.994;2023-08-01T12:34:31;7.63;;;0.47;;
66663;SDS011;59683;51.428;-1.994;2023-08-01T12:37:34;4.25;;;0.82;;
66663;SDS011;59683;51.428;-1.994;2023-08-01T12:40:00;2.95;;;1.05;;
66663;SDS011;59683;51.428;-1.994;2023-08-01T12:42:25;3.08;;;0.52;;
66663;SDS011;59683;51.428;-1.994;2023-08-01T12:44:50;2.00;;;0.30;;
66663;SDS011;59683;51.428;-1.994;2023-08-01T12:47:19;2.65;;;0.50;;
66663;SDS011;59683;51.428;-1.994;2023-08-01T12:53:26;2.88;;;0.47;;
66663;SDS011;59683;51.428;-1.994;2023-08-01T12:55:52;2.65;;;0.50;;
66663;SDS011;59683;51.428;-1.994;2023-08-01T13:02:27;3.00;;;1.33;;
66663;SDS011;59683;51.428;-1.994;2023-08-01T13:09:13;2.30;;;0.40;;
66663;SDS011;59683;51.428;-1.994;2023-08-01T13:11:38;3.13;;;0.40;;
66663;SDS011;59683;51.428;-1.994;2023-08-01T13:14:04;3.17;;;0.40;;
66663;SDS011;59683;51.428;-1.994;2023-08-01T13:16:29;3.17;;;0.40;;
66663;SDS011;59683;51.428;-1.994;2023-08-01T13:18:55;3.97;;;0.38;;
66663;SDS011;59683;51.428;-1.994;2023-08-01T14:32:37;3.25;;;0.82;;
66663;SDS011;59683;51.428;-1.994;2023-08-01T14:35:06;2.55;;;0.60;;
66663;SDS011;59683;51.428;-1.994;2023-08-01T14:37:32;2.53;;;0.63;;
66663;SDS011;59683;51.428;-1.994;2023-08-01T14:39:58;3.28;;;0.85;;
66663;SDS011;59683;51.428;-1.994;2023-08-01T14:42:27;6.20;;;0.65;;
66663;SDS011;59683;51.428;-1.994;2023-08-01T14:44:53;4.18;;;0.52;;
66663;SDS011;59683;51.428;-1.994;2023-08-01T14:47:25;1.83;;;0.45;;
66663;SDS011;59683;51.428;-1.994;2023-08-01T14:49:55;2.35;;;0.52;;
66663;SDS011;59683;51.428;-1.994;2023-08-01T14:52:24;2.40;;;0.65;;
66663;SDS011;59683;51.428;-1.994;2023-08-01T14:54:50;1.40;;;0.50;;
66663;SDS011;59683;51.428;-1.994;2023-08-01T14:57:18;3.47;;;0.47;;
66663;SDS011;59683;51.428;-1.994;2023-08-01T15:00:03;2.60;;;0.52;;
66663;SDS011;59683;51.428;-1.994;2023-08-01T15:02:31;2.53;;;0.50;;
66663;SDS011;59683;51.428;-1.994;2023-08-01T15:04:56;4.85;;;0.70;;
66663;SDS011;59683;51.428;-1.994;2023-08-01T15:07:25;3.90;;;0.70;;
66663;SDS011;59683;51.428;-1.994;2023-08-01T15:17:39;1.40;;;0.43;;
66663;SDS011;59683;51.428;-1.994;2023-08-01T15:20:18;2.25;;;0.60;;
66663;SDS011;59683;51.428;-1.994;2023-08-01T15:25:26;1.95;;;0.50;;
66663;SDS011;59683;51.428;-1.994;2023-08-01T15:27:54;2.80;;;0.70;;
66663;SDS011;59683;51.428;-1.994;2023-08-01T23:01:25;6.90;;;1.80;;
66663;SDS011;59683;51.428;-1.994;2023-08-01T23:03:52;10.40;;;2.70;;
66663;SDS011;59683;51.428;-1.994;2023-08-01T23:06:18;8.40;;;2.00;;
66663;SDS011;59683;51.428;-1.994;2023-08-01T23:08:44;9.50;;;2.10;;
66663;SDS011;59683;51.428;-1.994;2023-08-01T23:11:09;7.67;;;1.90;;
66663;SDS011;59683;51.428;-1.994;2023-08-01T23:13:35;9.53;;;1.93;;
66663;SDS011;59683;51.428;-1.994;2023-08-01T23:16:00;6.77;;;1.83;;
66663;SDS011;59683;51.428;-1.994;2023-08-01T23:18:25;11.57;;;2.37;;
66663;SDS011;59683;51.428;-1.994;2023-08-01T23:20:55;7.27;;;2.30;;
66663;SDS011;59683;51.428;-1.994;2023-08-01T23:23:23;9.53;;;3.53;;
66663;SDS011;59683;51.428;-1.994;2023-08-01T23:25:48;11.77;;;4.07;;
66663;SDS011;59683;51.428;-1.994;2023-08-01T23:28:14;8.27;;;2.23;;
66663;SDS011;59683;51.428;-1.994;2023-08-01T23:30:39;11.10;;;2.27;;
66663;SDS011;59683;51.428;-1.994;2023-08-01T23:33:05;10.53;;;2.57;;
66663;SDS011;59683;51.428;-1.994;2023-08-01T23:35:32;10.37;;;2.50;;
66663;SDS011;59683;51.428;-1.994;2023-08-01T23:37:57;9.83;;;2.97;;
66663;SDS011;59683;51.428;-1.994;2023-08-01T23:40:23;7.90;;;2.83;;
66663;SDS011;59683;51.428;-1.994;2023-08-01T23:42:49;8.23;;;1.90;;
66663;SDS011;59683;51.428;-1.994;2023-08-01T23:45:16;8.67;;;2.30;;
66663;SDS011;59683;51.428;-1.994;2023-08-01T23:47:41;6.50;;;1.97;;
66663;SDS011;59683;51.428;-1.994;2023-08-01T23:50:07;11.70;;;2.13;;
66663;SDS011;59683;51.428;-1.994;2023-08-01T23:52:33;4.03;;;1.47;;
66663;SDS011;59683;51.428;-1.994;2023-08-01T23:54:58;4.63;;;2.07;;
66663;SDS011;59683;51.428;-1.994;2023-08-01T23:57:24;5.63;;;2.67;;
66663;SDS011;59683;51.428;-1.994;2023-08-01T23:59:49;6.63;;;2.00;;
